createdAt,value
2023-05-19T00:02:45.504Z,101065.06
2023-05-19T00:07:48.113Z,101062.53
2023-05-19T00:12:50.526Z,101060.38
2023-05-19T00:17:55.243Z,101065.25
2023-05-19T00:22:56.736Z,101062.56
2023-05-19T00:27:59.220Z,101069.50
2023-05-19T00:33:01.034Z,101071.50
2023-05-19T00:38:02.523Z,101068.97
2023-05-19T00:43:05.569Z,101068.84
2023-05-19T00:48:07.113Z,101063.63
2023-05-19T00:53:09.020Z,101053.00
2023-05-19T00:58:12.170Z,101053.31
2023-05-19T01:03:15.141Z,101054.00
2023-05-19T01:08:17.112Z,101052.31
2023-05-19T01:13:18.622Z,101045.53
2023-05-19T01:18:29.679Z,101045.69
2023-05-19T01:23:57.128Z,101044.53
2023-05-19T01:29:29.329Z,101049.53
2023-05-19T01:34:31.792Z,101043.78
2023-05-19T01:39:33.443Z,101042.94
2023-05-19T01:44:35.242Z,101045.81
2023-05-19T01:49:36.743Z,101039.75
2023-05-19T01:54:38.222Z,101040.75
2023-05-19T01:59:52.063Z,101052.53
2023-05-19T02:05:04.258Z,101049.31
2023-05-19T02:10:10.649Z,101058.56
2023-05-19T02:15:26.050Z,101054.88
2023-05-19T02:20:27.521Z,101048.78
2023-05-19T02:25:29.043Z,101055.19
2023-05-19T02:30:31.922Z,101052.31
2023-05-19T02:35:33.873Z,101053.47
2023-05-19T02:40:35.439Z,101038.66
2023-05-19T02:45:36.882Z,101047.38
2023-05-19T02:50:38.582Z,101033.75
2023-05-19T02:55:39.978Z,101036.91
2023-05-19T03:00:41.451Z,101027.00
2023-05-19T03:05:43.717Z,101022.78
2023-05-19T03:10:46.682Z,101032.84
2023-05-19T03:15:48.905Z,101030.50
2023-05-19T03:20:50.831Z,101025.75
2023-05-19T03:25:54.202Z,101032.97
2023-05-19T03:30:55.750Z,101035.84
2023-05-19T03:35:57.682Z,101044.91
2023-05-19T03:40:59.204Z,101039.53
2023-05-19T03:46:00.866Z,101048.22
2023-05-19T03:51:02.401Z,101044.97
2023-05-19T03:56:04.056Z,101040.44
2023-05-19T04:01:05.531Z,101041.13
2023-05-19T04:06:08.024Z,101036.78
2023-05-19T04:11:09.543Z,101043.84
2023-05-19T04:16:11.203Z,101043.16
2023-05-19T04:21:12.678Z,101039.34
2023-05-19T04:26:17.934Z,101036.31
2023-05-19T04:31:21.627Z,101040.56
2023-05-19T04:36:23.937Z,101045.78
2023-05-19T04:41:25.382Z,101040.59
2023-05-19T04:46:29.886Z,101047.53
2023-05-19T04:51:31.670Z,101055.47
2023-05-19T04:56:33.267Z,101056.69
2023-05-19T05:01:34.684Z,101065.66
2023-05-19T05:06:38.281Z,101058.44
2023-05-19T05:11:40.036Z,101052.88
2023-05-19T05:16:42.426Z,101046.63
2023-05-19T05:21:44.211Z,101043.13
2023-05-19T05:26:46.002Z,101033.91
2023-05-19T05:31:47.382Z,101043.34
2023-05-19T05:36:49.031Z,101044.38
2023-05-19T05:41:50.702Z,101046.06
2023-05-19T05:46:52.707Z,101037.50
2023-05-19T05:52:04.820Z,101038.00
2023-05-19T05:57:08.215Z,101037.66
2023-05-19T06:02:09.656Z,101037.63
2023-05-19T06:07:11.070Z,101038.94
2023-05-19T06:12:12.629Z,101045.06
2023-05-19T06:17:14.071Z,101032.50
2023-05-19T06:22:15.598Z,101021.31
2023-05-19T06:27:17.074Z,101027.47
2023-05-19T06:32:18.546Z,101034.41
2023-05-19T06:37:25.414Z,101032.13
2023-05-19T06:42:26.896Z,101031.22
2023-05-19T06:47:28.424Z,101031.38
2023-05-19T06:52:29.827Z,101028.22
2023-05-19T06:57:31.343Z,101039.53
2023-05-19T07:02:32.893Z,101017.06
2023-05-19T07:07:35.566Z,101022.00
2023-05-19T07:12:36.994Z,101013.59
2023-05-19T07:17:38.613Z,101006.34
2023-05-19T07:22:40.201Z,101000.88
2023-05-19T07:27:41.861Z,100997.13
2023-05-19T07:32:43.446Z,100990.16
2023-05-19T07:37:44.946Z,100992.44
2023-05-19T07:42:46.368Z,100988.59
2023-05-19T07:47:48.056Z,100987.59
2023-05-19T07:52:49.473Z,100980.22
2023-05-19T07:57:50.943Z,100977.78
2023-05-19T08:02:53.182Z,100974.53
2023-05-19T08:07:54.764Z,100975.31
2023-05-19T08:12:56.176Z,100977.47
2023-05-19T08:17:57.642Z,100971.25
2023-05-19T08:22:59.398Z,100970.22
2023-05-19T08:28:01.477Z,100962.25
2023-05-19T08:33:03.211Z,100961.47
2023-05-19T08:38:04.689Z,100950.38
2023-05-19T08:43:06.185Z,100954.13
2023-05-19T08:48:08.027Z,100953.44
2023-05-19T08:53:31.405Z,100938.53
2023-05-19T08:58:33.876Z,100938.88
2023-05-19T09:03:39.285Z,100940.91
2023-05-19T09:08:42.172Z,100925.75
2023-05-19T09:13:43.934Z,100926.88
2023-05-19T09:18:58.903Z,100909.78
2023-05-19T09:24:07.851Z,100906.91
2023-05-19T09:29:16.575Z,100909.38
2023-05-19T09:34:18.616Z,100902.97
2023-05-19T09:39:22.096Z,100902.22
2023-05-19T09:44:28.959Z,100903.56
2023-05-19T09:49:32.753Z,100890.25
2023-05-19T09:54:34.613Z,100878.41
2023-05-19T09:59:38.936Z,100870.66
2023-05-19T10:04:42.196Z,100879.75
2023-05-19T10:09:44.746Z,100866.94
2023-05-19T10:14:48.876Z,100859.44
2023-05-19T10:19:54.755Z,100858.25
2023-05-19T10:24:56.170Z,100849.88
2023-05-19T10:30:01.579Z,100846.41
2023-05-19T10:35:16.616Z,100849.78
2023-05-19T10:40:55.416Z,100844.72
2023-05-19T10:45:58.518Z,100843.53
2023-05-19T10:51:00.160Z,100835.97
2023-05-19T10:56:03.902Z,100834.22
2023-05-19T11:01:33.319Z,100823.91
2023-05-19T11:06:38.749Z,100822.50
2023-05-19T11:11:51.707Z,100820.34
2023-05-19T11:16:57.031Z,100816.94
2023-05-19T11:22:12.461Z,100826.44
2023-05-19T11:27:20.783Z,100819.94
2023-05-19T11:32:26.514Z,100815.03
2023-05-19T11:37:32.495Z,100811.19
2023-05-19T11:42:36.278Z,100802.84
2023-05-19T11:47:50.888Z,100808.06
2023-05-19T11:53:01.186Z,100803.28
2023-05-19T11:58:05.858Z,100792.28
2023-05-19T12:03:09.207Z,100793.47
2023-05-19T12:08:13.826Z,100781.03
2023-05-19T12:13:15.724Z,100793.78
2023-05-19T12:18:17.195Z,100789.03
2023-05-19T12:23:18.951Z,100789.75
2023-05-19T12:28:20.817Z,100786.44
2023-05-19T12:33:23.087Z,100776.22
2023-05-19T12:38:24.777Z,100786.94
2023-05-19T12:43:26.531Z,100783.22
2023-05-19T12:48:30.106Z,100781.69
2023-05-19T12:53:33.721Z,100772.50
2023-05-19T12:58:35.180Z,100765.50
2023-05-19T13:03:41.864Z,100762.28
2023-05-19T13:08:44.257Z,100768.41
2023-05-19T13:13:45.823Z,100754.03
2023-05-19T13:18:47.300Z,100748.00
2023-05-19T13:23:49.930Z,100744.16
2023-05-19T13:28:53.576Z,100742.44
2023-05-19T13:33:55.087Z,100733.94
2023-05-19T13:38:56.590Z,100726.47
2023-05-19T13:43:59.432Z,100725.34
2023-05-19T13:49:02.185Z,100730.50
2023-05-19T13:54:03.656Z,100723.56
2023-05-19T13:59:05.275Z,100731.97
2023-05-19T14:04:07.336Z,100723.75
2023-05-19T14:09:09.333Z,100721.59
2023-05-19T14:14:11.562Z,100716.09
2023-05-19T14:19:13.337Z,100710.78
2023-05-19T14:24:14.812Z,100712.66
2023-05-19T14:29:16.381Z,100708.91
2023-05-19T14:34:17.922Z,100718.41
2023-05-19T14:39:19.379Z,100703.97
2023-05-19T14:44:20.956Z,100714.22
2023-05-19T14:49:22.382Z,100707.19
2023-05-19T14:54:23.847Z,100701.28
2023-05-19T14:59:25.520Z,100703.19
2023-05-19T15:04:27.165Z,100694.69
2023-05-19T15:09:28.683Z,100688.91
2023-05-19T15:14:31.177Z,100685.09
2023-05-19T15:19:33.050Z,100685.31
2023-05-19T15:24:34.625Z,100684.88
2023-05-19T15:29:36.182Z,100687.91
2023-05-19T15:34:37.699Z,100697.38
2023-05-19T15:39:39.323Z,100696.81
2023-05-19T15:44:40.805Z,100701.75
2023-05-19T15:49:42.260Z,100711.53
2023-05-19T15:54:44.240Z,100700.06
2023-05-19T15:59:45.775Z,100708.28
2023-05-19T16:04:47.204Z,100700.81
2023-05-19T16:09:49.957Z,100697.53
2023-05-19T16:14:53.674Z,100693.41
2023-05-19T16:19:55.190Z,100681.47
2023-05-19T16:24:56.655Z,100683.72
2023-05-19T16:29:58.406Z,100685.13
2023-05-19T16:34:59.918Z,100671.03
2023-05-19T16:40:01.799Z,100677.38
2023-05-19T16:45:03.658Z,100677.34
2023-05-19T16:50:05.824Z,100671.00
2023-05-19T16:55:07.582Z,100679.50
2023-05-19T17:00:09.626Z,100666.75
2023-05-19T17:05:11.436Z,100675.94
2023-05-19T17:10:13.804Z,100674.19
2023-05-19T17:15:15.592Z,100678.16
2023-05-19T17:20:17.063Z,100674.88
2023-05-19T17:25:18.500Z,100676.09
2023-05-19T17:30:20.079Z,100682.78
2023-05-19T17:35:22.021Z,100685.66
2023-05-19T17:40:23.442Z,100693.66
2023-05-19T17:45:25.101Z,100696.38
2023-05-19T17:50:26.648Z,100700.28
2023-05-19T17:55:30.305Z,100694.22
2023-05-19T18:00:33.262Z,100694.50
2023-05-19T18:05:35.317Z,100699.34
2023-05-19T18:10:38.918Z,100693.81
2023-05-19T18:15:40.734Z,100704.47
2023-05-19T18:20:44.715Z,100712.38
2023-05-19T18:25:51.670Z,100709.38
2023-05-19T18:31:04.669Z,100700.50
2023-05-19T18:36:06.552Z,100708.75
2023-05-19T18:41:09.259Z,100706.09
2023-05-19T18:46:11.217Z,100706.94
2023-05-19T18:51:15.648Z,100716.09
2023-05-19T18:56:27.901Z,100724.03
2023-05-19T19:01:29.422Z,100717.75
2023-05-19T19:06:31.218Z,100724.88
2023-05-19T19:11:32.708Z,100729.03
2023-05-19T19:16:34.482Z,100729.06
2023-05-19T19:21:35.938Z,100725.22
2023-05-19T19:26:37.979Z,100734.53
2023-05-19T19:31:39.548Z,100733.84
2023-05-19T19:36:41.205Z,100741.75
2023-05-19T19:41:42.689Z,100740.00
2023-05-19T19:46:44.188Z,100740.81
2023-05-19T19:51:45.751Z,100744.44
2023-05-19T19:56:47.182Z,100745.56
2023-05-19T20:01:48.667Z,100743.94
2023-05-19T20:06:50.301Z,100732.63
2023-05-19T20:11:51.984Z,100734.59
2023-05-19T20:16:53.410Z,100735.63
2023-05-19T20:21:55.183Z,100731.25
2023-05-19T20:26:56.620Z,100733.56
2023-05-19T20:31:58.082Z,100729.41
2023-05-19T20:36:59.802Z,100735.06
2023-05-19T20:42:01.316Z,100734.31
2023-05-19T20:47:04.179Z,100735.88
2023-05-19T20:52:05.896Z,100730.94
2023-05-19T20:57:09.260Z,100734.34
2023-05-19T21:02:11.920Z,100732.13
2023-05-19T21:07:13.415Z,100736.34
2023-05-19T21:12:16.129Z,100743.06
2023-05-19T21:17:19.005Z,100739.09
2023-05-19T21:22:20.758Z,100737.25
2023-05-19T21:27:22.377Z,100745.41
2023-05-19T21:32:23.890Z,100745.00
2023-05-19T21:37:25.328Z,100739.34
2023-05-19T21:42:27.106Z,100740.63
2023-05-19T21:47:28.976Z,100751.50
2023-05-19T21:52:31.371Z,100746.69
2023-05-19T21:57:32.790Z,100746.69
2023-05-19T22:02:34.334Z,100738.97
2023-05-19T22:07:36.717Z,100742.72
2023-05-19T22:12:38.240Z,100742.94
2023-05-19T22:17:39.777Z,100745.00
2023-05-19T22:22:41.267Z,100733.94
2023-05-19T22:27:42.688Z,100730.00
2023-05-19T22:32:44.242Z,100731.22
2023-05-19T22:37:45.745Z,100734.56
2023-05-19T22:42:47.219Z,100725.16
2023-05-19T22:47:50.014Z,100722.88
2023-05-19T22:52:51.537Z,100728.09
2023-05-19T22:57:53.008Z,100725.19
2023-05-19T23:02:54.666Z,100729.78
2023-05-19T23:07:56.197Z,100714.53
2023-05-19T23:12:57.607Z,100714.50
2023-05-19T23:18:01.137Z,100713.28
2023-05-19T23:23:02.795Z,100720.38
2023-05-19T23:28:04.493Z,100711.78
2023-05-19T23:33:05.986Z,100709.06
2023-05-19T23:38:07.520Z,100696.56
2023-05-19T23:43:08.984Z,100705.75
2023-05-19T23:48:11.091Z,100703.25
2023-05-19T23:53:12.554Z,100696.13
2023-05-19T23:58:15.773Z,100689.06
